Philadelphia, Pennsylvania
Traffic Map
Current Weather Conditions
Philadelphia, Pennsylvania
Overcast
Overcast
74°
Feels Like: 74°
Wind Chill: 74° Ceiling: 7000
Heat Index: 74° Visibility: 10mi
Dew Point: 67° Wind: 0mph
Humidity: 79% Direction: ° ()
Pressure: 30in Gusts: 0mph
Raw Report DataKPHL 220354Z 00000KT 10SM FEW031 BKN070 BKN110 OVC180 23/19 A3000 RMK AO2 SLP157 T02330194
Traffic Incident Summary
Active as of:
Severity:
Category:
InformationThere was an issue retrieving the traffic information for this location. Please try a different location or try again shortly.
Advertisements
Track Severe Weather on mobile